Date,TemperatureHighF,TemperatureAvgF,TemperatureLowF,DewpointHighF,DewpointAvgF,DewpointLowF,HumidityHigh,HumidityAvg,HumidityLow,PressureMaxIn,PressureMinIn,WindSpeedMaxMPH,WindSpeedAvgMPH,GustSpeedMaxMPH,PrecipitationSumIn
2013-5-1,76.0,62.9,52.0,57.0,53.9,50.0,94,75,49,30.06,29.87,4,1,12,0.01
2013-5-2,95.0,73.9,48.0,53.0,37.1,16.0,97,40,6,30.11,30.02,8,1,14,0.01
2013-5-3,96.0,80.1,64.0,39.0,25.5,18.0,28,14,7,30.04,29.77,6,2,15,0.00
2013-5-4,75.0,64.6,55.0,56.0,48.7,31.0,91,59,22,29.80,29.71,4,1,12,0.00
2013-5-5,65.0,58.0,54.0,53.0,51.2,50.0,89,78,65,29.90,29.79,5,1,13,0.00
2013-5-6,63.0,57.1,54.0,56.0,52.8,50.0,99,86,69,29.99,29.85,4,0,11,0.25
2013-5-7,67.0,59.7,53.0,53.0,51.1,47.0,94,75,51,30.03,29.96,9,2,16,0.00
2013-5-8,71.0,59.3,49.0,53.0,50.1,47.0,96,74,44,30.07,30.03,6,1,15,0.00
2013-5-9,74.0,61.3,49.0,56.0,51.9,47.0,94,73,50,30.07,29.98,5,1,12,0.00
2013-5-10,86.0,65.1,52.0,59.0,53.1,-99.9,96,72,38,30.08,29.97,5,1,11,0.00
2013-5-11,90.0,68.9,54.0,61.0,55.0,-99.9,98,69,31,30.05,29.97,6,0,12,0.00
2013-5-12,99.0,77.8,58.0,61.0,55.3,49.0,94,53,19,30.04,29.91,7,1,16,0.00
2013-5-13,99.0,83.0,67.0,54.0,46.9,38.0,54,30,16,29.97,29.89,6,1,19,0.00
2013-5-14,83.0,66.2,53.0,57.0,53.5,50.0,95,67,37,29.96,29.87,7,1,13,0.00
2013-5-15,74.0,62.7,54.0,57.0,53.0,51.0,91,72,53,29.99,29.91,4,1,11,0.00
2013-5-16,72.0,57.0,51.0,57.0,36.9,-99.9,95,78,58,29.96,29.87,4,1,10,0.00
2013-5-17,73.0,61.5,52.0,57.0,50.3,-99.9,95,76,53,29.96,29.89,5,1,13,0.00
2013-5-18,77.0,63.5,50.0,56.0,52.0,48.0,95,69,42,30.02,29.93,3,1,10,0.00
2013-5-19,84.0,67.5,51.0,56.0,50.3,42.0,87,57,32,29.97,29.83,6,1,12,0.00
2013-5-20,91.0,70.0,52.0,58.0,51.6,45.0,92,58,21,29.93,29.85,5,1,15,0.00
2013-5-21,78.0,64.1,55.0,59.0,54.7,48.0,92,73,53,29.89,29.80,4,1,2,0.00
2013-5-22,76.0,62.5,52.0,57.0,53.1,48.0,95,74,50,29.83,29.73,5,1,13,0.00
2013-5-23,73.0,61.3,50.0,54.0,48.9,43.0,89,65,43,29.91,29.80,5,1,13,0.00
2013-5-24,73.0,61.2,49.0,54.0,48.2,42.0,83,64,44,29.96,29.88,7,2,18,0.00
2013-5-25,75.0,61.5,49.0,54.0,50.0,45.0,92,68,47,30.00,29.93,6,1,13,0.00
2013-5-26,76.0,62.6,50.0,55.0,50.8,47.0,91,68,46,30.02,29.96,4,0,10,0.00
2013-5-27,85.0,65.5,51.0,57.0,52.3,47.0,91,65,34,29.98,29.81,4,0,11,0.00
2013-5-28,89.0,72.9,57.0,58.0,50.3,41.0,80,49,21,29.84,29.71,7,1,17,0.00
2013-5-29,91.0,76.2,60.0,57.0,51.5,44.0,68,44,28,29.80,29.68,4,0,16,0.00
2013-5-30,86.0,71.3,56.0,58.0,53.4,44.0,90,56,33,29.85,29.73,5,1,14,0.00
2013-5-31,84.0,67.6,55.0,60.0,55.2,50.0,92,67,43,29.90,29.79,4,0,10,0.00